Time;durP1;ratioP1;P1;durP2;ratioP2;P2;SDS_P1;SDS_P2;PMS_P1;PMS_P2;Temp;Humidity;BMP_temperature;BMP_pressure;BME280_temperature;BME280_humidity;BME280_pressure;Samples;Min_cycle;Max_cycle;Signal;HPM_P1;HPM_P2
2023/01/24 00:01:18;;;;;;;29.70;14.37;;;2.40;99.90;;;;;;5052234;28;20257;-74
2023/01/24 00:03:43;;;;;;;29.53;14.27;;;2.40;99.90;;;;;;5051924;28;20222;-74
2023/01/24 00:06:09;;;;;;;22.43;12.63;;;2.30;99.90;;;;;;5051433;28;20287;-74
2023/01/24 00:08:35;;;;;;;26.53;13.97;;;2.20;99.90;;;;;;5052589;28;20184;-75
2023/01/24 00:11:06;;;;;;;26.93;14.10;;;2.30;99.90;;;;;;5055499;28;20207;-74
2023/01/24 00:13:32;;;;;;;26.57;14.47;;;2.20;99.90;;;;;;5035562;28;20257;-75
2023/01/24 00:16:12;;;;;;;25.20;14.60;;;2.20;99.90;;;;;;5051463;28;20581;-74
2023/01/24 00:18:37;;;;;;;26.33;15.13;;;2.20;99.90;;;;;;5040766;28;20226;-74
2023/01/24 00:21:09;;;;;;;27.67;14.83;;;2.30;99.90;;;;;;5034156;28;20175;-75
2023/01/24 00:23:36;;;;;;;26.97;14.13;;;2.30;99.90;;;;;;5052387;28;20270;-74
2023/01/24 00:26:02;;;;;;;23.07;13.77;;;2.30;99.90;;;;;;5026671;28;20794;-75
2023/01/24 00:28:28;;;;;;;22.23;13.23;;;2.30;99.90;;;;;;5051766;28;20215;-73
2023/01/24 00:30:53;;;;;;;31.07;14.17;;;2.30;99.90;;;;;;5050873;28;20586;-71
2023/01/24 00:33:19;;;;;;;28.63;15.00;;;2.30;99.90;;;;;;5033375;28;20227;-75
2023/01/24 00:35:44;;;;;;;29.33;14.33;;;2.30;99.90;;;;;;5051728;28;20206;-75
2023/01/24 00:38:10;;;;;;;27.87;14.23;;;2.20;99.90;;;;;;5033607;28;20572;-74
2023/01/24 00:40:36;;;;;;;26.57;13.87;;;2.20;99.90;;;;;;5051281;28;20209;-72
2023/01/24 00:43:01;;;;;;;23.93;13.13;;;2.20;99.90;;;;;;5051144;28;20704;-75
2023/01/24 00:45:27;;;;;;;25.23;13.90;;;2.20;99.90;;;;;;5050834;28;20227;-74
2023/01/24 00:47:52;;;;;;;24.20;13.83;;;2.20;99.90;;;;;;5033024;28;20194;-72
2023/01/24 00:50:19;;;;;;;22.33;13.37;;;2.20;99.90;;;;;;5034098;28;20279;-75
2023/01/24 00:52:44;;;;;;;22.33;12.50;;;2.20;99.90;;;;;;5051040;28;20242;-74
2023/01/24 00:55:10;;;;;;;22.90;12.10;;;2.20;99.90;;;;;;5033000;28;20212;-74
2023/01/24 00:57:36;;;;;;;21.90;11.43;;;2.10;99.90;;;;;;5029411;28;20224;-73
2023/01/24 01:00:02;;;;;;;26.70;13.57;;;2.10;99.90;;;;;;5050541;28;20191;-75
2023/01/24 01:02:28;;;;;;;18.40;12.03;;;2.10;99.90;;;;;;5051675;28;20246;-75
2023/01/24 01:04:53;;;;;;;19.60;11.40;;;2.00;99.90;;;;;;5050090;28;20288;-71
2023/01/24 01:07:20;;;;;;;20.97;12.17;;;1.90;99.90;;;;;;5051223;28;20213;-74
2023/01/24 01:09:46;;;;;;;20.17;11.50;;;2.00;99.90;;;;;;5050924;28;20673;-75
2023/01/24 01:12:12;;;;;;;20.97;11.57;;;1.90;99.90;;;;;;5032985;28;20673;-73
2023/01/24 01:14:37;;;;;;;21.20;11.30;;;1.90;99.90;;;;;;5052528;28;20180;-73
2023/01/24 01:17:03;;;;;;;19.33;11.87;;;1.90;99.90;;;;;;5050881;28;20251;-74
2023/01/24 01:19:28;;;;;;;20.77;11.93;;;1.90;99.90;;;;;;5033358;28;20788;-74
2023/01/24 01:21:54;;;;;;;21.97;12.17;;;1.90;99.90;;;;;;5032972;28;20616;-72
2023/01/24 01:24:20;;;;;;;20.23;11.60;;;2.00;99.90;;;;;;5033333;28;20290;-74
2023/01/24 01:26:45;;;;;;;21.93;11.93;;;2.00;99.90;;;;;;5033264;28;20208;-74
2023/01/24 01:29:11;;;;;;;21.47;11.70;;;2.00;99.90;;;;;;5051947;28;20211;-72
2023/01/24 01:31:36;;;;;;;19.90;12.17;;;2.00;99.90;;;;;;5029302;28;20745;-71
2023/01/24 01:34:02;;;;;;;18.70;11.20;;;2.00;99.90;;;;;;5033471;28;20253;-72
2023/01/24 01:36:28;;;;;;;17.70;11.43;;;2.00;99.90;;;;;;5032988;28;20381;-74
2023/01/24 01:38:53;;;;;;;17.70;10.80;;;2.10;99.90;;;;;;5050728;28;20220;-73
2023/01/24 01:41:19;;;;;;;18.63;10.67;;;2.10;99.90;;;;;;5051275;28;20230;-74
2023/01/24 01:46:41;;;;;;;19.90;10.20;;;2.00;99.90;;;;;;5050643;28;20246;-74
2023/01/24 01:49:17;;;;;;;15.67;10.00;;;1.90;99.90;;;;;;5033839;28;20203;-73
2023/01/24 01:51:49;;;;;;;19.33;10.43;;;1.80;99.90;;;;;;5029561;28;20219;-74
2023/01/24 01:54:19;;;;;;;15.13;10.17;;;1.80;99.90;;;;;;5049680;28;20225;-74
2023/01/24 01:57:00;;;;;;;19.10;10.93;;;1.70;99.90;;;;;;5031923;28;20844;-74
2023/01/24 01:59:34;;;;;;;18.87;10.97;;;1.70;99.90;;;;;;5032861;28;20244;-75
2023/01/24 02:02:01;;;;;;;15.03;10.03;;;1.60;99.90;;;;;;5049723;28;20206;-74
2023/01/24 02:07:49;;;;;;;18.77;10.47;;;1.50;99.90;;;;;;5058305;28;20226;-72
2023/01/24 02:10:17;;;;;;;17.80;10.27;;;1.40;99.90;;;;;;5045906;28;20210;-72
2023/01/24 02:12:46;;;;;;;18.33;10.23;;;1.50;99.90;;;;;;5058481;28;20222;-74
2023/01/24 02:18:07;;;;;;;15.70;8.87;;;1.70;99.90;;;;;;5058588;28;20212;-75
2023/01/24 02:20:38;;;;;;;15.40;9.33;;;1.70;99.90;;;;;;5056931;28;20542;-72
2023/01/24 02:23:15;;;;;;;13.87;8.30;;;1.60;99.90;;;;;;5050856;28;20210;-72
2023/01/24 02:25:50;;;;;;;16.73;8.80;;;1.60;99.90;;;;;;5029545;28;20208;-74
2023/01/24 02:28:16;;;;;;;14.10;8.93;;;1.60;99.90;;;;;;5055434;28;20197;-72
2023/01/24 02:30:42;;;;;;;17.27;9.20;;;1.60;99.90;;;;;;5052148;28;20227;-72
2023/01/24 02:33:19;;;;;;;13.17;8.17;;;1.50;99.90;;;;;;5038477;28;20661;-73
2023/01/24 02:35:46;;;;;;;16.27;9.07;;;1.60;99.90;;;;;;5039528;28;20318;-77
2023/01/24 02:38:24;;;;;;;13.40;8.93;;;1.50;99.90;;;;;;5048214;28;20229;-76
2023/01/24 02:40:54;;;;;;;12.17;8.07;;;1.40;99.90;;;;;;5040212;28;20265;-76
2023/01/24 02:43:24;;;;;;;14.80;8.20;;;1.40;99.90;;;;;;5050744;28;20590;-77
2023/01/24 02:45:50;;;;;;;13.17;8.83;;;1.30;99.90;;;;;;5056406;28;20227;-76
2023/01/24 02:48:15;;;;;;;12.70;8.50;;;1.40;99.90;;;;;;5056013;28;20273;-77
2023/01/24 02:53:31;;;;;;;14.30;7.87;;;1.50;99.90;;;;;;5057164;28;20214;-73
2023/01/24 02:58:53;;;;;;;11.70;7.83;;;1.40;99.90;;;;;;5051337;28;20281;-73
2023/01/24 03:01:20;;;;;;;14.60;8.13;;;1.40;99.90;;;;;;5038009;28;20219;-73
2023/01/24 03:03:46;;;;;;;12.37;7.60;;;1.40;99.90;;;;;;5034880;28;20210;-74
2023/01/24 03:06:14;;;;;;;16.07;8.10;;;1.40;99.90;;;;;;5044859;28;20243;-74
2023/01/24 03:08:40;;;;;;;16.40;8.67;;;1.40;99.90;;;;;;5058668;28;20257;-74
2023/01/24 03:11:07;;;;;;;13.47;8.07;;;1.50;99.90;;;;;;5055559;28;20291;-74
2023/01/24 03:35:31;;;;;;;11.80;6.40;;;1.50;99.90;;;;;;5054428;28;20265;-74
2023/01/24 03:40:41;;;;;;;12.97;7.83;;;1.30;99.90;;;;;;5056833;28;20709;-74
2023/01/24 03:43:07;;;;;;;12.80;6.70;;;1.20;99.90;;;;;;5057515;28;20201;-74
2023/01/24 03:45:37;;;;;;;12.73;7.67;;;1.10;99.90;;;;;;5053262;28;20227;-73
2023/01/24 03:48:09;;;;;;;10.37;7.17;;;1.20;99.90;;;;;;5054302;28;20839;-74
2023/01/24 03:53:27;;;;;;;13.50;7.33;;;1.30;99.90;;;;;;5056240;28;20237;-75
2023/01/24 03:55:58;;;;;;;13.13;7.27;;;1.40;99.90;;;;;;5058350;28;20637;-73
2023/01/24 03:58:25;;;;;;;15.40;7.77;;;1.50;99.90;;;;;;5053663;28;20212;-75
2023/01/24 04:00:53;;;;;;;12.27;7.33;;;1.50;99.90;;;;;;5060841;28;20219;-74
2023/01/24 04:03:19;;;;;;;13.20;7.70;;;1.50;99.90;;;;;;5056261;28;20257;-73
2023/01/24 04:05:48;;;;;;;11.23;6.87;;;1.50;99.90;;;;;;5056364;28;20219;-73
2023/01/24 04:08:15;;;;;;;11.37;7.50;;;1.50;99.90;;;;;;5059662;28;20200;-75
2023/01/24 04:10:41;;;;;;;12.83;8.33;;;1.40;99.90;;;;;;5055439;28;20234;-74
2023/01/24 04:13:11;;;;;;;11.73;7.43;;;1.30;99.90;;;;;;5055696;28;20199;-74
2023/01/24 04:15:37;;;;;;;10.17;7.20;;;1.30;99.90;;;;;;5056738;28;20310;-74
2023/01/24 04:18:04;;;;;;;13.37;7.13;;;1.10;99.90;;;;;;5052700;28;20207;-72
2023/01/24 04:20:32;;;;;;;11.90;7.23;;;1.10;99.90;;;;;;5055684;28;20201;-72
2023/01/24 04:23:07;;;;;;;14.37;7.57;;;1.10;99.90;;;;;;5040006;28;20206;-72
2023/01/24 04:25:33;;;;;;;11.63;7.60;;;1.10;99.90;;;;;;5052849;28;20213;-75
2023/01/24 04:27:59;;;;;;;11.17;7.30;;;1.10;99.90;;;;;;5061057;28;20199;-75
2023/01/24 04:30:25;;;;;;;11.70;7.73;;;1.10;99.90;;;;;;5055057;28;20691;-75
2023/01/24 04:32:51;;;;;;;10.93;7.83;;;1.10;99.90;;;;;;5054672;28;20243;-74
2023/01/24 04:35:22;;;;;;;14.20;7.50;;;1.20;99.90;;;;;;5058654;28;20224;-74
2023/01/24 04:37:47;;;;;;;10.90;7.43;;;1.30;99.90;;;;;;5054366;28;20222;-75
2023/01/24 04:40:14;;;;;;;14.17;8.93;;;1.30;99.90;;;;;;5036765;28;20196;-75
2023/01/24 04:42:40;;;;;;;12.63;7.53;;;1.20;99.90;;;;;;5038566;28;20213;-73
2023/01/24 04:45:07;;;;;;;10.77;7.40;;;1.20;99.90;;;;;;5053951;28;20641;-73
2023/01/24 04:47:32;;;;;;;13.17;8.10;;;1.10;99.90;;;;;;5040702;28;20175;-73
2023/01/24 04:49:58;;;;;;;13.33;7.30;;;1.10;99.90;;;;;;5057323;28;20216;-74
2023/01/24 04:52:24;;;;;;;11.53;7.97;;;1.00;99.90;;;;;;5052510;28;20584;-75
2023/01/24 04:54:51;;;;;;;11.40;7.67;;;1.10;99.90;;;;;;5059003;28;20226;-75
2023/01/24 04:57:17;;;;;;;11.03;7.67;;;1.10;99.90;;;;;;5054695;28;20215;-75
2023/01/24 04:59:43;;;;;;;13.00;7.60;;;1.10;99.90;;;;;;5053111;28;20183;-75
2023/01/24 05:02:09;;;;;;;13.67;8.00;;;1.20;99.90;;;;;;5058956;28;20216;-72
2023/01/24 05:04:34;;;;;;;13.40;8.43;;;1.10;99.90;;;;;;5051775;28;20302;-75
2023/01/24 05:07:01;;;;;;;11.87;7.73;;;1.30;99.90;;;;;;5034584;28;20206;-75
2023/01/24 05:09:26;;;;;;;12.67;7.63;;;1.30;99.90;;;;;;5056045;28;20215;-75
2023/01/24 05:11:52;;;;;;;16.03;8.13;;;1.30;99.90;;;;;;5053922;28;20244;-74
2023/01/24 05:14:17;;;;;;;10.70;8.37;;;1.20;99.90;;;;;;5040156;28;20231;-73
2023/01/24 05:16:43;;;;;;;12.60;8.33;;;1.20;99.90;;;;;;5055766;28;20685;-74
2023/01/24 05:19:09;;;;;;;12.80;8.47;;;1.20;99.90;;;;;;5052739;28;20225;-75
2023/01/24 05:21:34;;;;;;;16.27;8.47;;;1.30;99.90;;;;;;5032352;28;20269;-75
2023/01/24 05:24:00;;;;;;;11.43;7.57;;;1.30;99.90;;;;;;5056109;28;20179;-74
2023/01/24 05:26:26;;;;;;;13.03;8.43;;;1.30;99.90;;;;;;5034011;28;20225;-74
2023/01/24 05:28:53;;;;;;;14.03;8.67;;;1.40;99.90;;;;;;5058687;28;20266;-73
2023/01/24 05:31:19;;;;;;;12.63;8.50;;;1.40;99.90;;;;;;5053601;28;20275;-75
2023/01/24 05:33:45;;;;;;;12.27;7.43;;;1.50;99.90;;;;;;5034144;28;20586;-75
2023/01/24 05:36:14;;;;;;;16.53;8.87;;;1.50;99.90;;;;;;5039459;28;20225;-74
2023/01/24 05:38:41;;;;;;;12.83;8.10;;;1.60;99.90;;;;;;5053200;28;20375;-74
2023/01/24 05:41:09;;;;;;;13.33;7.60;;;1.50;99.90;;;;;;5057364;28;20301;-75
2023/01/24 05:43:36;;;;;;;11.73;7.73;;;1.50;99.90;;;;;;5055074;28;20214;-75
2023/01/24 05:46:13;;;;;;;12.23;8.07;;;1.50;99.90;;;;;;5052474;28;20215;-75
2023/01/24 05:48:39;;;;;;;12.03;8.20;;;1.40;99.90;;;;;;5054021;28;20242;-75
2023/01/24 05:51:07;;;;;;;13.07;9.20;;;1.40;99.90;;;;;;5033241;28;20202;-75
2023/01/24 05:53:35;;;;;;;14.73;8.57;;;1.30;99.90;;;;;;5052066;28;20189;-75
2023/01/24 05:56:04;;;;;;;12.60;8.43;;;1.20;99.90;;;;;;5058379;28;20210;-75
2023/01/24 05:58:32;;;;;;;11.90;8.20;;;1.30;99.90;;;;;;5053028;28;20215;-73
2023/01/24 06:00:57;;;;;;;13.40;8.00;;;1.30;99.90;;;;;;5053242;28;20567;-75
2023/01/24 06:03:23;;;;;;;11.33;8.00;;;1.20;99.90;;;;;;5055853;28;20267;-75
2023/01/24 06:05:54;;;;;;;13.33;8.50;;;1.30;99.90;;;;;;5052813;28;20301;-75
2023/01/24 06:08:20;;;;;;;12.70;8.20;;;1.30;99.90;;;;;;5039183;28;20215;-75
2023/01/24 06:10:47;;;;;;;13.00;7.80;;;1.40;99.90;;;;;;5055662;28;20211;-74
2023/01/24 06:13:13;;;;;;;12.30;7.33;;;1.40;99.90;;;;;;5054497;28;20207;-75
2023/01/24 06:15:40;;;;;;;11.33;7.63;;;1.50;99.90;;;;;;5056402;28;20281;-73
2023/01/24 06:18:07;;;;;;;9.80;7.17;;;1.50;99.90;;;;;;5037251;28;20619;-75
2023/01/24 06:20:33;;;;;;;10.80;7.83;;;1.50;99.90;;;;;;5051452;28;20213;-75
2023/01/24 06:23:04;;;;;;;13.77;8.70;;;1.50;99.90;;;;;;5040489;28;20298;-75
2023/01/24 06:25:30;;;;;;;14.00;8.07;;;1.50;99.90;;;;;;5052474;28;20235;-75
2023/01/24 06:27:56;;;;;;;12.70;7.67;;;1.60;99.90;;;;;;5053024;28;20491;-75
2023/01/24 06:30:21;;;;;;;14.07;8.40;;;1.60;99.90;;;;;;5038249;28;20211;-75
2023/01/24 06:33:02;;;;;;;14.20;8.53;;;1.50;99.90;;;;;;5037640;28;20175;-75
2023/01/24 06:35:49;;;;;;;14.27;8.30;;;1.50;99.90;;;;;;5040504;28;20727;-74
2023/01/24 06:38:20;;;;;;;17.10;8.57;;;1.50;99.90;;;;;;5030047;28;20225;-75
2023/01/24 06:40:46;;;;;;;18.50;10.17;;;1.50;99.90;;;;;;5050543;28;20234;-75
2023/01/24 06:43:12;;;;;;;17.20;8.00;;;1.60;99.90;;;;;;5061366;28;20199;-75
2023/01/24 06:45:37;;;;;;;17.67;10.37;;;1.60;99.90;;;;;;5056445;28;20264;-75
2023/01/24 06:48:03;;;;;;;17.00;9.47;;;1.50;99.90;;;;;;5057441;28;20178;-75
2023/01/24 06:50:31;;;;;;;20.37;10.37;;;1.50;99.90;;;;;;5055258;28;20178;-75
2023/01/24 06:52:57;;;;;;;16.73;8.77;;;1.50;99.90;;;;;;5047528;28;20214;-75
2023/01/24 06:55:23;;;;;;;18.30;9.90;;;1.50;99.90;;;;;;5060212;28;20230;-74
2023/01/24 06:57:58;;;;;;;18.53;9.13;;;1.50;99.90;;;;;;5059184;28;20215;-75
2023/01/24 07:00:25;;;;;;;19.77;9.93;;;1.40;99.90;;;;;;5033997;28;20569;-75
2023/01/24 07:03:01;;;;;;;19.63;10.83;;;1.40;99.90;;;;;;5061936;28;20191;-75
2023/01/24 07:05:27;;;;;;;17.03;10.17;;;1.40;99.90;;;;;;5053388;28;20283;-75
2023/01/24 07:07:53;;;;;;;23.23;11.27;;;1.50;99.90;;;;;;5055795;28;20212;-71
2023/01/24 07:10:19;;;;;;;20.77;10.50;;;1.50;99.90;;;;;;5041773;28;20211;-75
2023/01/24 07:12:44;;;;;;;21.93;10.57;;;1.50;99.90;;;;;;5060520;28;20221;-75
2023/01/24 07:15:10;;;;;;;23.27;11.10;;;1.50;99.90;;;;;;5059818;28;20240;-74
2023/01/24 07:17:36;;;;;;;24.63;11.53;;;1.50;99.90;;;;;;5058371;28;20199;-75
2023/01/24 07:20:02;;;;;;;23.60;11.10;;;1.50;99.90;;;;;;5038541;28;20275;-75
2023/01/24 07:22:28;;;;;;;20.93;10.03;;;1.50;99.90;;;;;;5059947;28;20217;-75
2023/01/24 07:24:55;;;;;;;19.97;10.23;;;1.50;99.90;;;;;;5040972;28;20215;-74
2023/01/24 07:27:21;;;;;;;20.90;10.43;;;1.50;99.90;;;;;;5035979;28;20215;-75
2023/01/24 07:29:46;;;;;;;20.20;10.57;;;1.50;99.90;;;;;;5061026;28;20178;-74
2023/01/24 07:32:12;;;;;;;25.37;11.37;;;1.60;99.90;;;;;;5057554;28;20218;-76
2023/01/24 07:34:38;;;;;;;19.00;10.40;;;1.60;99.90;;;;;;5053726;28;20211;-75
2023/01/24 07:37:08;;;;;;;19.47;10.67;;;1.50;99.90;;;;;;5061013;28;20684;-76
2023/01/24 07:39:34;;;;;;;21.43;10.57;;;1.60;99.90;;;;;;5055791;28;20211;-76
2023/01/24 07:41:59;;;;;;;20.63;10.30;;;1.60;99.90;;;;;;5059745;28;20653;-76
2023/01/24 07:44:25;;;;;;;21.70;10.87;;;1.60;99.90;;;;;;5058499;28;20250;-75
2023/01/24 07:46:51;;;;;;;22.40;10.80;;;1.60;99.90;;;;;;5055176;28;20625;-75
2023/01/24 07:49:16;;;;;;;21.03;10.07;;;1.60;99.90;;;;;;5059458;28;20225;-75
2023/01/24 07:51:42;;;;;;;23.17;11.97;;;1.70;99.90;;;;;;5056517;28;20717;-75
2023/01/24 07:54:08;;;;;;;25.20;11.33;;;1.70;99.90;;;;;;5054006;28;20198;-76
2023/01/24 07:56:34;;;;;;;19.00;11.00;;;1.70;99.90;;;;;;5041163;28;20686;-76
2023/01/24 07:58:59;;;;;;;23.93;10.93;;;1.70;99.90;;;;;;5057546;28;20221;-74
2023/01/24 08:01:26;;;;;;;23.77;11.10;;;1.70;99.90;;;;;;5052810;28;20238;-77
2023/01/24 08:03:56;;;;;;;21.23;10.90;;;1.70;99.90;;;;;;5041987;28;20597;-75
2023/01/24 08:06:22;;;;;;;19.43;10.27;;;1.70;99.90;;;;;;5070625;23;20343;-75
2023/01/24 08:08:48;;;;;;;18.07;10.57;;;1.70;99.90;;;;;;5054982;28;20271;-74
2023/01/24 08:11:17;;;;;;;23.60;11.40;;;1.80;99.90;;;;;;5058494;28;20207;-74
2023/01/24 08:13:45;;;;;;;21.33;10.73;;;1.70;99.90;;;;;;5053870;28;20212;-73
2023/01/24 08:16:11;;;;;;;19.73;11.50;;;1.80;99.90;;;;;;5062462;28;20211;-74
2023/01/24 08:18:38;;;;;;;23.27;10.63;;;1.80;99.90;;;;;;5064616;28;20241;-75
2023/01/24 08:21:04;;;;;;;22.03;10.03;;;1.90;99.90;;;;;;5064093;28;20206;-74
2023/01/24 08:23:30;;;;;;;19.40;10.07;;;1.90;99.90;;;;;;5067344;28;20251;-75
2023/01/24 08:26:00;;;;;;;17.87;10.33;;;1.90;99.90;;;;;;5064506;28;20226;-75
2023/01/24 08:28:25;;;;;;;20.77;9.73;;;1.90;99.90;;;;;;5061758;28;20214;-73
2023/01/24 08:30:51;;;;;;;20.67;10.17;;;2.00;99.90;;;;;;5067733;28;20214;-74
2023/01/24 08:33:19;;;;;;;20.87;10.03;;;2.00;99.90;;;;;;5065645;28;20214;-74
2023/01/24 08:35:46;;;;;;;17.33;9.13;;;2.00;99.90;;;;;;5062103;28;20692;-74
2023/01/24 08:38:14;;;;;;;18.70;9.70;;;2.00;99.90;;;;;;5066400;28;20297;-74
2023/01/24 08:40:40;;;;;;;18.90;9.90;;;2.10;99.90;;;;;;5065467;28;20211;-75
2023/01/24 08:43:05;;;;;;;15.70;9.37;;;2.00;99.90;;;;;;5064068;28;20672;-75
2023/01/24 08:45:31;;;;;;;20.17;10.73;;;2.10;99.90;;;;;;5065861;28;20602;-74
2023/01/24 08:47:56;;;;;;;21.93;9.87;;;2.00;99.90;;;;;;5061601;28;20214;-73
2023/01/24 08:50:22;;;;;;;18.93;10.30;;;2.00;99.90;;;;;;5065737;28;20183;-75
2023/01/24 08:52:48;;;;;;;22.50;11.50;;;2.10;99.90;;;;;;5061350;28;20224;-75
2023/01/24 08:55:15;;;;;;;20.03;10.57;;;2.10;99.90;;;;;;5061160;28;20673;-75
2023/01/24 08:57:41;;;;;;;23.33;10.80;;;2.10;99.90;;;;;;5064016;28;20268;-71
2023/01/24 09:00:07;;;;;;;24.27;11.30;;;2.10;99.90;;;;;;5064182;28;20203;-74
2023/01/24 09:02:36;;;;;;;29.10;11.47;;;2.20;99.90;;;;;;5063489;28;20186;-74
2023/01/24 09:05:03;;;;;;;28.10;11.47;;;2.20;99.90;;;;;;5065630;28;20199;-73
2023/01/24 09:07:29;;;;;;;23.13;11.00;;;2.30;99.90;;;;;;5026413;28;1138118;-75
2023/01/24 09:09:54;;;;;;;26.33;13.10;;;2.30;99.90;;;;;;5065050;28;20230;-74
2023/01/24 09:12:20;;;;;;;28.37;12.30;;;2.40;99.90;;;;;;5067792;28;20857;-74
2023/01/24 09:14:46;;;;;;;28.63;12.07;;;2.20;99.90;;;;;;5058710;28;20184;-74
2023/01/24 09:17:11;;;;;;;28.57;11.87;;;2.30;99.90;;;;;;5064632;28;20206;-75
2023/01/24 09:19:37;;;;;;;28.13;12.27;;;2.30;99.90;;;;;;5065260;28;20211;-74
2023/01/24 09:22:03;;;;;;;26.37;11.97;;;2.40;99.90;;;;;;5063546;28;20696;-75
2023/01/24 09:24:28;;;;;;;28.83;13.10;;;2.40;99.90;;;;;;5065589;28;20305;-75
2023/01/24 09:26:54;;;;;;;37.07;13.20;;;2.50;99.90;;;;;;5066103;28;20274;-73
2023/01/24 09:29:20;;;;;;;28.20;13.37;;;2.50;99.90;;;;;;5064050;28;20590;-75
2023/01/24 09:31:49;;;;;;;30.80;12.87;;;2.40;99.90;;;;;;5065598;28;20207;-74
2023/01/24 09:34:15;;;;;;;29.57;13.93;;;2.50;99.90;;;;;;5065188;28;20210;-75
2023/01/24 09:36:41;;;;;;;36.60;14.93;;;2.50;99.90;;;;;;5059542;28;20271;-74
2023/01/24 09:39:06;;;;;;;37.53;13.93;;;2.60;99.90;;;;;;5060113;28;20580;-75
2023/01/24 09:41:54;;;;;;;33.50;14.60;;;2.60;99.90;;;;;;5067417;28;20231;-74
2023/01/24 09:44:30;;;;;;;36.50;13.83;;;2.50;99.90;;;;;;5065288;28;20290;-75
2023/01/24 09:46:57;;;;;;;40.53;14.97;;;2.40;99.90;;;;;;5055059;28;20707;-75
2023/01/24 09:49:40;;;;;;;36.07;15.20;;;2.40;99.90;;;;;;5067251;28;20229;-75
2023/01/24 09:52:12;;;;;;;35.10;14.67;;;2.50;99.90;;;;;;5061544;28;20205;-75
2023/01/24 09:54:53;;;;;;;36.00;15.63;;;2.60;99.90;;;;;;5067604;28;20208;-75
2023/01/24 09:57:29;;;;;;;38.00;15.07;;;2.70;99.90;;;;;;5064871;28;20252;-75
2023/01/24 10:00:12;;;;;;;43.03;16.50;;;2.70;99.90;;;;;;5063465;28;20176;-74
2023/01/24 10:02:39;;;;;;;43.57;17.23;;;2.80;99.90;;;;;;5064112;28;20664;-75
2023/01/24 10:05:11;;;;;;;36.77;15.60;;;2.90;99.90;;;;;;5067508;28;20260;-74
2023/01/24 10:07:46;;;;;;;42.40;16.70;;;2.90;99.90;;;;;;5062629;28;20305;-74
2023/01/24 10:10:49;;;;;;;39.93;15.57;;;3.00;99.90;;;;;;5059055;28;20278;-74
2023/01/24 10:13:33;;;;;;;48.63;17.07;;;3.10;99.90;;;;;;5060746;28;20290;-74
2023/01/24 10:16:32;;;;;;;58.80;18.93;;;3.00;99.90;;;;;;5064329;28;20214;-75
2023/01/24 10:19:18;;;;;;;44.87;18.10;;;2.90;99.90;;;;;;5063623;28;20235;-75
2023/01/24 10:21:55;;;;;;;56.53;18.43;;;2.70;99.90;;;;;;5060095;28;20589;-74
2023/01/24 10:24:27;;;;;;;56.97;19.90;;;2.70;99.90;;;;;;5067013;28;20210;-75
2023/01/24 10:26:53;;;;;;;52.60;19.73;;;2.70;99.90;;;;;;5063857;28;20289;-73
2023/01/24 10:29:24;;;;;;;52.13;18.87;;;2.70;99.90;;;;;;5062632;28;20167;-74
2023/01/24 10:32:12;;;;;;;60.47;19.23;;;2.70;99.90;;;;;;5064209;28;20212;-74
2023/01/24 10:34:40;;;;;;;53.53;19.03;;;2.80;99.90;;;;;;5060828;28;20320;-74
2023/01/24 10:37:22;;;;;;;50.43;19.00;;;3.00;99.90;;;;;;5061834;28;20209;-74
2023/01/24 10:39:47;;;;;;;48.27;18.27;;;3.10;99.90;;;;;;5064947;28;20215;-74
2023/01/24 10:42:29;;;;;;;57.90;20.20;;;3.10;99.90;;;;;;5063628;28;20232;-75
2023/01/24 10:45:00;;;;;;;59.90;19.40;;;3.20;99.90;;;;;;5066493;28;20180;-74
2023/01/24 10:47:44;;;;;;;58.70;21.03;;;3.10;99.90;;;;;;5059507;28;20231;-75
2023/01/24 10:50:18;;;;;;;66.87;21.73;;;3.20;99.90;;;;;;5061528;28;20556;-75
2023/01/24 10:52:48;;;;;;;53.13;19.17;;;3.20;99.90;;;;;;5065508;28;20218;-74
2023/01/24 10:55:34;;;;;;;51.10;20.60;;;3.30;99.90;;;;;;5062838;28;20208;-73
2023/01/24 10:58:03;;;;;;;52.67;20.37;;;3.30;99.90;;;;;;5062953;28;20216;-74
2023/01/24 11:00:40;;;;;;;65.67;22.00;;;3.30;99.90;;;;;;5062421;28;20301;-74
2023/01/24 11:03:28;;;;;;;59.03;21.33;;;3.30;99.90;;;;;;5062659;28;20185;-75
2023/01/24 11:05:56;;;;;;;63.87;21.23;;;3.40;99.90;;;;;;5065865;28;20265;-73
2023/01/24 11:08:35;;;;;;;57.63;21.10;;;3.40;99.90;;;;;;5064708;28;20216;-75
2023/01/24 11:11:01;;;;;;;62.70;22.17;;;3.50;99.90;;;;;;5064165;28;20217;-75
2023/01/24 11:13:33;;;;;;;61.27;21.93;;;3.30;99.90;;;;;;5066056;28;20234;-74
2023/01/24 11:16:21;;;;;;;60.03;22.50;;;3.30;99.90;;;;;;5060757;28;20305;-72
2023/01/24 11:18:52;;;;;;;55.80;21.47;;;3.30;99.90;;;;;;5060262;28;20256;-74
2023/01/24 11:21:19;;;;;;;63.63;21.97;;;3.40;99.90;;;;;;5064868;28;20299;-75
2023/01/24 11:23:58;;;;;;;53.50;21.30;;;3.40;99.90;;;;;;5041386;28;20240;-75
2023/01/24 11:26:26;;;;;;;67.80;21.63;;;3.50;99.90;;;;;;5067659;28;20567;-75
2023/01/24 11:28:57;;;;;;;61.30;21.17;;;3.50;99.90;;;;;;5065520;28;20224;-73
2023/01/24 11:31:30;;;;;;;62.60;23.97;;;3.50;99.90;;;;;;5063941;28;20259;-75
2023/01/24 11:34:04;;;;;;;59.73;21.80;;;3.40;99.90;;;;;;5067260;28;20211;-74
2023/01/24 11:36:55;;;;;;;66.70;21.13;;;3.50;99.90;;;;;;5063869;28;20212;-75
2023/01/24 11:39:51;;;;;;;55.37;21.03;;;3.40;99.90;;;;;;5067331;28;20324;-75
2023/01/24 11:42:17;;;;;;;70.03;22.97;;;3.50;99.90;;;;;;5064424;28;20224;-76
2023/01/24 11:44:42;;;;;;;62.80;21.80;;;3.40;99.90;;;;;;5064882;28;20192;-73
2023/01/24 11:47:12;;;;;;;59.53;20.27;;;3.30;99.90;;;;;;5068904;28;20645;-75
2023/01/24 11:50:06;;;;;;;60.07;21.50;;;3.30;99.90;;;;;;5062417;28;20223;-75
2023/01/24 11:52:55;;;;;;;52.60;19.83;;;3.40;99.90;;;;;;5085018;28;20677;-76
2023/01/24 11:55:33;;;;;;;58.83;21.73;;;3.40;99.90;;;;;;5060893;28;20208;-74
2023/01/24 11:58:29;;;;;;;69.63;24.03;;;3.40;99.90;;;;;;5065188;28;20309;-75
2023/01/24 12:01:21;;;;;;;59.97;21.93;;;3.40;99.90;;;;;;5066770;28;20869;-74
2023/01/24 12:03:59;;;;;;;62.20;22.23;;;3.40;99.90;;;;;;5043016;28;20298;-75
2023/01/24 12:06:36;;;;;;;62.57;21.73;;;3.40;99.90;;;;;;5069942;28;20222;-75
2023/01/24 12:09:13;;;;;;;53.50;19.80;;;3.40;99.90;;;;;;5065177;28;20182;-75
2023/01/24 12:12:01;;;;;;;64.20;21.90;;;3.50;99.90;;;;;;5068392;28;20188;-76
2023/01/24 12:14:49;;;;;;;61.20;21.50;;;3.50;99.90;;;;;;5069782;28;20217;-76
2023/01/24 12:17:45;;;;;;;59.37;21.83;;;3.50;99.90;;;;;;5063844;28;20218;-75
2023/01/24 12:20:30;;;;;;;54.60;20.27;;;3.50;99.90;;;;;;5064560;28;20723;-76
2023/01/24 12:22:59;;;;;;;55.47;21.27;;;3.60;99.90;;;;;;5062708;28;20305;-75
2023/01/24 12:25:39;;;;;;;67.73;23.53;;;3.60;99.90;;;;;;5067482;28;20202;-75
2023/01/24 12:28:08;;;;;;;57.10;21.27;;;3.60;99.90;;;;;;5066686;28;20637;-75
2023/01/24 12:30:39;;;;;;;55.23;20.17;;;3.60;99.90;;;;;;5062473;28;20291;-75
2023/01/24 12:33:33;;;;;;;56.70;20.70;;;3.60;99.90;;;;;;5069206;28;20179;-76
2023/01/24 12:36:08;;;;;;;61.60;21.20;;;3.60;99.90;;;;;;5063386;28;20596;-74
2023/01/24 12:38:59;;;;;;;56.17;20.40;;;3.50;99.90;;;;;;5062673;28;20685;-75
2023/01/24 12:41:34;;;;;;;54.20;21.57;;;3.50;99.90;;;;;;5067314;28;20225;-76
2023/01/24 12:44:28;;;;;;;52.10;20.73;;;3.50;99.90;;;;;;5062023;28;20217;-74
2023/01/24 12:47:08;;;;;;;65.87;22.27;;;3.50;99.90;;;;;;5065811;28;20715;-72
2023/01/24 12:50:17;;;;;;;53.70;20.73;;;3.60;99.90;;;;;;5056133;28;20210;-74
2023/01/24 12:53:05;;;;;;;57.40;21.13;;;3.60;99.90;;;;;;5040637;28;20212;-72
2023/01/24 12:55:47;;;;;;;67.63;20.63;;;3.50;99.90;;;;;;5060835;28;20206;-72
2023/01/24 12:58:18;;;;;;;56.40;21.23;;;3.50;99.90;;;;;;5063699;28;20482;-75
2023/01/24 13:01:12;;;;;;;47.03;18.93;;;3.50;99.90;;;;;;5068987;28;20273;-73
2023/01/24 13:03:56;;;;;;;48.63;19.20;;;3.30;99.90;;;;;;5060539;28;20296;-74
2023/01/24 13:06:48;;;;;;;49.93;18.10;;;3.20;99.90;;;;;;5064861;28;20768;-74
2023/01/24 13:09:40;;;;;;;51.93;20.10;;;3.00;99.90;;;;;;5058148;28;20235;-74
2023/01/24 13:12:14;;;;;;;50.23;18.53;;;3.00;99.90;;;;;;5062722;28;20197;-74
2023/01/24 13:15:00;;;;;;;58.40;19.67;;;3.00;99.90;;;;;;5062776;28;20636;-74
2023/01/24 13:17:47;;;;;;;55.10;20.53;;;3.10;99.90;;;;;;5059023;28;20206;-74
2023/01/24 13:20:27;;;;;;;47.50;19.77;;;3.10;99.90;;;;;;5064675;28;20210;-73
2023/01/24 13:22:59;;;;;;;56.20;19.90;;;3.10;99.90;;;;;;5063382;28;20216;-73
2023/01/24 13:25:46;;;;;;;51.97;19.00;;;3.20;99.90;;;;;;5061790;28;20210;-74
2023/01/24 13:28:29;;;;;;;56.80;20.23;;;3.20;99.90;;;;;;5052517;28;20199;-74
2023/01/24 13:31:18;;;;;;;45.37;17.97;;;3.30;99.90;;;;;;5060132;28;20328;-72
2023/01/24 13:33:47;;;;;;;49.77;18.30;;;3.40;99.90;;;;;;5062103;28;20277;-73
2023/01/24 13:36:25;;;;;;;52.07;18.80;;;3.30;99.90;;;;;;5065259;28;20221;-74
2023/01/24 13:38:52;;;;;;;58.70;20.80;;;3.40;99.90;;;;;;5069457;28;20291;-77
2023/01/24 13:41:26;;;;;;;56.00;19.87;;;3.40;99.90;;;;;;5068106;28;20216;-75